createdAt,value
2022-08-22T00:13:13.956Z,95531.66
2022-08-22T00:18:47.028Z,95519.97
2022-08-22T00:23:58.952Z,95523.19
2022-08-22T00:29:09.628Z,95528.50
2022-08-22T00:34:17.864Z,95530.03
2022-08-22T00:39:41.189Z,95531.09
2022-08-22T00:45:04.987Z,95533.97
2022-08-22T00:50:34.422Z,95538.06
2022-08-22T00:55:58.204Z,95541.06
2022-08-22T01:01:07.013Z,95538.06
2022-08-22T01:11:59.276Z,95541.50
2022-08-22T01:17:27.389Z,95519.34
2022-08-22T01:22:48.292Z,95527.00
2022-08-22T01:28:16.684Z,95543.00
2022-08-22T01:33:56.985Z,95541.41
2022-08-22T01:39:33.379Z,95533.66
2022-08-22T01:44:59.089Z,95524.81
2022-08-22T01:50:13.329Z,95537.34
2022-08-22T01:55:26.489Z,95526.50
2022-08-22T02:00:35.158Z,95540.09
2022-08-22T02:05:49.086Z,95521.50
2022-08-22T02:11:03.482Z,95515.97
2022-08-22T02:16:15.044Z,95519.94
2022-08-22T02:21:27.548Z,95528.31
2022-08-22T02:27:04.374Z,95536.09
2022-08-22T02:32:26.887Z,95541.78
2022-08-22T02:37:48.968Z,95530.00
2022-08-22T02:43:08.336Z,95527.63
2022-08-22T02:48:32.752Z,95554.09
2022-08-22T02:54:00.628Z,95552.16
2022-08-22T02:59:24.861Z,95565.00
2022-08-22T03:04:33.639Z,95554.31
2022-08-22T03:09:56.874Z,95561.81
2022-08-22T03:15:28.505Z,95556.31
2022-08-22T03:21:15.199Z,95568.16
2022-08-22T03:26:33.991Z,95565.84
2022-08-22T03:31:36.968Z,95564.38
2022-08-22T03:36:40.837Z,95561.16
2022-08-22T03:42:23.213Z,95571.81
2022-08-22T03:47:43.345Z,95569.50
2022-08-22T03:53:18.701Z,95571.53
2022-08-22T03:58:31.851Z,95560.69
2022-08-22T04:03:59.105Z,95567.88
2022-08-22T04:09:10.643Z,95568.53
2022-08-22T04:14:30.005Z,95559.72
2022-08-22T04:20:02.754Z,95552.28
2022-08-22T04:25:23.949Z,95557.63
2022-08-22T04:30:34.664Z,95549.94
2022-08-22T04:35:55.573Z,95577.03
2022-08-22T04:41:12.216Z,95585.88
2022-08-22T04:46:39.083Z,95574.88
2022-08-22T04:51:49.221Z,95554.75
2022-08-22T04:57:17.623Z,95564.25
2022-08-22T05:02:28.174Z,95579.66
2022-08-22T05:07:41.716Z,95571.28
2022-08-22T05:12:53.541Z,95584.25
2022-08-22T05:18:05.399Z,95576.91
2022-08-22T05:23:18.391Z,95576.91
2022-08-22T05:28:41.108Z,95610.59
2022-08-22T05:33:50.714Z,95603.31
2022-08-22T06:20:49.922Z,95622.56
2022-08-22T06:25:54.812Z,95626.53
2022-08-22T06:30:59.603Z,95625.78
2022-08-22T06:36:26.683Z,95641.22
2022-08-22T06:41:33.772Z,95632.53
2022-08-22T06:46:38.639Z,95627.84
2022-08-22T06:51:42.064Z,95624.19
2022-08-22T06:56:49.320Z,95627.44
2022-08-22T07:02:01.466Z,95629.53
2022-08-22T07:07:03.874Z,95619.03
2022-08-22T07:12:19.695Z,95627.06
2022-08-22T07:17:31.267Z,95616.28
2022-08-22T07:22:37.725Z,95630.84
2022-08-22T07:28:04.937Z,95623.69
2022-08-22T07:33:32.149Z,95627.06
2022-08-22T07:38:43.041Z,95611.94
2022-08-22T07:43:49.973Z,95630.91
2022-08-22T07:49:13.045Z,95623.88
2022-08-22T07:54:22.947Z,95627.47
2022-08-22T07:59:31.482Z,95617.00
2022-08-22T08:04:40.009Z,95604.53
2022-08-22T08:09:47.248Z,95623.59
2022-08-22T08:14:53.778Z,95618.44
2022-08-22T08:19:57.181Z,95613.69
2022-08-22T08:25:01.011Z,95615.56
2022-08-22T08:30:12.237Z,95632.72
2022-08-22T08:35:20.772Z,95623.97
2022-08-22T08:40:32.996Z,95619.03
2022-08-22T08:45:41.703Z,95615.31
2022-08-22T08:50:59.573Z,95625.22
2022-08-22T08:56:42.802Z,95616.38
2022-08-22T09:02:01.910Z,95617.47
2022-08-22T09:07:28.437Z,95611.78
2022-08-22T09:13:12.143Z,95609.16
2022-08-22T09:18:42.375Z,95611.22
2022-08-22T09:24:26.249Z,95601.06
2022-08-22T09:29:54.456Z,95587.81
2022-08-22T09:35:05.636Z,95598.13
2022-08-22T09:40:16.993Z,95593.38
2022-08-22T09:45:26.851Z,95594.44
2022-08-22T09:51:13.528Z,95573.88
2022-08-22T09:56:37.236Z,95564.34
2022-08-22T10:02:14.290Z,95583.13
2022-08-22T10:07:52.733Z,95587.06
2022-08-22T10:13:43.140Z,95579.47
2022-08-22T10:19:05.186Z,95581.78
2022-08-22T10:24:46.135Z,95565.63
2022-08-22T10:30:02.580Z,95563.91
2022-08-22T10:35:33.977Z,95572.81
2022-08-22T10:40:48.962Z,95564.63
2022-08-22T10:46:12.692Z,95556.72
2022-08-22T10:51:42.876Z,95550.69
2022-08-22T10:57:03.782Z,95564.84
2022-08-22T11:02:30.906Z,95567.69
2022-08-22T11:08:01.357Z,95569.03
2022-08-22T11:13:30.880Z,95554.94
2022-08-22T11:19:15.318Z,95551.22
2022-08-22T11:24:35.226Z,95567.53
2022-08-22T11:29:59.271Z,95565.97
2022-08-22T11:35:19.048Z,95570.72
2022-08-22T11:40:30.909Z,95540.00
2022-08-22T11:45:46.046Z,95558.22
2022-08-22T11:50:56.495Z,95557.88
2022-08-22T11:56:28.093Z,95562.69
2022-08-22T12:02:05.246Z,95549.91
2022-08-22T12:07:31.487Z,95556.72
2022-08-22T12:12:48.836Z,95535.28
2022-08-22T12:18:35.778Z,95550.09
2022-08-22T12:24:11.293Z,95561.00
2022-08-22T12:29:44.944Z,95569.66
2022-08-22T12:35:30.224Z,95573.16
2022-08-22T12:40:53.604Z,95581.44
2022-08-22T12:46:18.431Z,95546.91
2022-08-22T12:51:37.115Z,95552.75
2022-08-22T12:57:00.558Z,95568.06
2022-08-22T13:02:15.969Z,95583.38
2022-08-22T13:07:25.868Z,95586.91
2022-08-22T13:12:44.460Z,95574.53
2022-08-22T13:55:24.009Z,95595.63
2022-08-22T14:01:02.335Z,95597.53
2022-08-22T14:06:35.367Z,95599.94
2022-08-22T14:17:42.895Z,95594.81
2022-08-22T14:23:03.867Z,95593.03
2022-08-22T14:28:27.610Z,95583.22
2022-08-22T14:33:51.752Z,95578.75
2022-08-22T14:38:57.966Z,95565.47
2022-08-22T14:44:09.659Z,95580.16
2022-08-22T14:49:17.836Z,95565.56
2022-08-22T14:54:22.979Z,95562.94
2022-08-22T14:59:38.850Z,95562.28
2022-08-22T15:04:45.740Z,95572.97
2022-08-22T15:10:03.161Z,95549.94
2022-08-22T15:15:33.117Z,95552.34
2022-08-22T15:21:24.469Z,95540.63
2022-08-22T15:26:34.549Z,95551.22
2022-08-22T15:31:46.482Z,95538.66
2022-08-22T15:37:07.786Z,95532.22
2022-08-22T15:42:25.132Z,95521.31
2022-08-22T15:47:38.794Z,95527.63
2022-08-22T15:53:05.194Z,95525.78
2022-08-22T15:58:20.121Z,95517.41
2022-08-22T16:03:32.086Z,95531.41
2022-08-22T16:08:37.398Z,95532.53
2022-08-22T16:13:43.627Z,95534.47
2022-08-22T16:18:49.157Z,95526.47
2022-08-22T16:23:51.537Z,95548.13
2022-08-22T16:29:00.222Z,95546.56
2022-08-22T16:34:52.681Z,95552.41
2022-08-22T16:39:58.902Z,95548.31
2022-08-22T16:45:05.513Z,95567.31
2022-08-22T16:50:19.902Z,95573.22
2022-08-22T16:55:31.659Z,95580.75
2022-08-22T17:00:37.197Z,95587.13
2022-08-22T17:05:57.077Z,95586.66
2022-08-22T17:11:14.189Z,95594.34
2022-08-22T17:16:28.559Z,95592.28
2022-08-22T17:21:51.824Z,95597.75
2022-08-22T17:27:06.632Z,95626.25
2022-08-22T17:32:27.372Z,95647.75
2022-08-22T17:37:41.920Z,95650.78
2022-08-22T17:43:14.236Z,95650.34
2022-08-22T17:48:27.382Z,95664.63
2022-08-22T17:53:46.388Z,95679.50
2022-08-22T17:58:55.121Z,95677.47
2022-08-22T18:04:01.204Z,95664.94
2022-08-22T18:09:20.568Z,95659.38
2022-08-22T18:14:36.293Z,95666.03
2022-08-22T18:19:59.489Z,95665.34
2022-08-22T18:25:06.477Z,95663.03
2022-08-22T18:30:11.837Z,95654.44
2022-08-22T18:35:27.359Z,95664.03
2022-08-22T18:40:37.169Z,95689.63
2022-08-22T18:45:51.924Z,95700.63
2022-08-22T18:51:16.406Z,95690.13
2022-08-22T18:56:48.908Z,95699.97
2022-08-22T19:02:28.766Z,95706.78
2022-08-22T19:07:55.904Z,95713.59
2022-08-22T19:13:29.310Z,95712.59
2022-08-22T19:18:56.087Z,95744.06
2022-08-22T19:23:59.407Z,95749.19
2022-08-22T19:29:17.407Z,95756.03
2022-08-22T19:34:25.795Z,95743.66
2022-08-22T19:39:40.403Z,95741.97
2022-08-22T19:44:46.879Z,95726.94
2022-08-22T19:49:55.109Z,95742.13
2022-08-22T19:55:31.838Z,95749.53
2022-08-22T20:00:54.216Z,95759.03
2022-08-22T20:06:33.642Z,95764.53
2022-08-22T20:11:57.836Z,95756.22
2022-08-22T20:17:24.677Z,95748.63
2022-08-22T20:22:29.736Z,95742.78
2022-08-22T20:27:38.370Z,95752.91
2022-08-22T20:33:21.690Z,95745.88
2022-08-22T20:38:32.614Z,95739.59
2022-08-22T20:44:12.722Z,95728.47
2022-08-22T20:49:26.862Z,95727.94
2022-08-22T20:54:33.530Z,95735.03
2022-08-22T20:59:42.062Z,95757.97
2022-08-22T21:05:09.577Z,95752.22
2022-08-22T21:10:44.571Z,95756.34
2022-08-22T21:15:50.961Z,95738.81
2022-08-22T21:20:53.577Z,95733.63
2022-08-22T21:25:59.501Z,95720.47
2022-08-22T21:31:10.634Z,95725.03
2022-08-22T21:36:17.834Z,95693.09
2022-08-22T21:41:38.826Z,95687.00
2022-08-22T21:46:41.362Z,95693.81
2022-08-22T21:51:46.120Z,95685.84
2022-08-22T21:56:50.236Z,95679.56
2022-08-22T22:01:55.425Z,95681.56
2022-08-22T22:06:58.224Z,95664.91
2022-08-22T22:12:00.694Z,95652.28
2022-08-22T22:17:02.827Z,95645.28
2022-08-22T22:22:05.536Z,95649.38
2022-08-22T22:27:11.696Z,95648.69
2022-08-22T22:32:16.121Z,95648.75
2022-08-22T22:37:18.563Z,95653.25
2022-08-22T22:42:20.955Z,95632.97
2022-08-22T22:47:31.508Z,95634.16
2022-08-22T22:52:33.916Z,95620.00
2022-08-22T22:57:42.877Z,95617.00
2022-08-22T23:02:48.683Z,95622.84
2022-08-22T23:07:51.017Z,95618.63
2022-08-22T23:12:53.321Z,95615.63
2022-08-22T23:17:55.784Z,95627.56
2022-08-22T23:23:21.162Z,95630.84
2022-08-22T23:28:23.454Z,95657.69
2022-08-22T23:33:25.960Z,95653.09
2022-08-22T23:38:28.564Z,95657.25
2022-08-22T23:43:30.913Z,95664.75
2022-08-22T23:48:33.258Z,95654.91
2022-08-22T23:53:35.457Z,95647.47
2022-08-22T23:58:37.921Z,95654.31
